Time;durP1;ratioP1;P1;durP2;ratioP2;P2;SDS_P1;SDS_P2;PMS_P1;PMS_P2;Temp;Humidity;BMP_temperature;BMP_pressure;BME280_temperature;BME280_humidity;BME280_pressure;Samples;Min_cycle;Max_cycle;Signal;HPM_P1;HPM_P2
2022/11/25 00:01:38;;;;;;;38.50;24.02;;;3.10;79.30;;;;;;5014636;28;20034;-17
2022/11/25 00:04:04;;;;;;;41.33;26.30;;;3.10;79.50;;;;;;5015910;28;20072;-19
2022/11/25 00:06:33;;;;;;;35.60;22.73;;;3.10;79.90;;;;;;5015345;28;20057;-18
2022/11/25 00:09:06;;;;;;;39.60;23.73;;;3.10;80.00;;;;;;5015557;28;20497;-18
2022/11/25 00:11:35;;;;;;;47.63;29.95;;;3.10;79.80;;;;;;5015948;28;20110;-18
2022/11/25 00:14:02;;;;;;;49.20;28.70;;;3.10;79.90;;;;;;5015818;28;20033;-18
2022/11/25 00:16:28;;;;;;;42.85;26.27;;;3.10;79.50;;;;;;5014299;28;20053;-16
2022/11/25 00:18:56;;;;;;;45.13;27.25;;;3.20;79.40;;;;;;5013973;28;20038;-16
2022/11/25 00:21:25;;;;;;;38.58;23.17;;;3.30;79.50;;;;;;5015540;28;20101;-15
2022/11/25 00:23:53;;;;;;;43.83;26.08;;;3.30;79.60;;;;;;5014991;28;20029;-17
2022/11/25 00:26:20;;;;;;;37.60;23.10;;;3.30;79.40;;;;;;5015305;28;20026;-17
2022/11/25 00:28:47;;;;;;;39.63;23.95;;;3.40;79.70;;;;;;5015165;28;20036;-16
2022/11/25 00:31:15;;;;;;;44.45;26.52;;;3.40;79.50;;;;;;5015288;28;20515;-16
2022/11/25 00:33:42;;;;;;;44.55;26.98;;;3.40;79.70;;;;;;5015199;28;20010;-15
2022/11/25 00:36:32;;;;;;;42.47;25.17;;;3.50;79.80;;;;;;5015091;28;20030;-26
2022/11/25 00:39:17;;;;;;;43.38;24.48;;;3.50;79.40;;;;;;4935238;29;20038;-16
2022/11/25 00:44:34;;;;;;;39.42;24.13;;;3.50;79.70;;;;;;4935416;29;20522;-18
2022/11/25 00:47:05;;;;;;;42.00;25.52;;;3.60;79.60;;;;;;4935726;29;20034;-16
2022/11/25 00:49:31;;;;;;;39.38;22.65;;;3.60;79.40;;;;;;4935458;29;20492;-17
2022/11/25 00:51:58;;;;;;;43.63;24.83;;;3.60;79.70;;;;;;4919187;29;20052;-17
2022/11/25 00:54:24;;;;;;;42.70;26.02;;;3.60;79.80;;;;;;4919083;29;20095;-18
2022/11/25 00:56:51;;;;;;;46.00;26.23;;;3.60;79.70;;;;;;4935107;29;20082;-16
2022/11/25 00:59:17;;;;;;;38.35;24.13;;;3.70;79.70;;;;;;4934819;29;20032;-15
2022/11/25 01:01:44;;;;;;;28.70;17.60;;;3.70;79.70;;;;;;4935006;29;20258;-17
2022/11/25 01:04:10;;;;;;;30.52;17.73;;;3.70;80.00;;;;;;4935188;29;20040;-18
2022/11/25 01:06:38;;;;;;;31.63;18.15;;;3.60;79.80;;;;;;4934823;29;20032;-17
2022/11/25 01:09:08;;;;;;;31.10;18.98;;;3.60;79.80;;;;;;4934534;29;20046;-17
2022/11/25 01:11:34;;;;;;;34.25;20.13;;;3.70;79.80;;;;;;4934588;29;20036;-17
2022/11/25 01:14:01;;;;;;;34.03;21.58;;;3.70;80.10;;;;;;4934616;29;20024;-17
2022/11/25 01:16:28;;;;;;;28.05;17.23;;;3.70;80.20;;;;;;4991977;28;20042;-18
2022/11/25 01:18:54;;;;;;;31.27;19.75;;;3.60;80.00;;;;;;5014141;28;20018;-17
2022/11/25 01:21:22;;;;;;;29.20;17.20;;;3.60;80.30;;;;;;5014086;28;20508;-17
2022/11/25 01:23:49;;;;;;;30.83;17.85;;;3.60;80.10;;;;;;5014440;28;20045;-17
2022/11/25 01:26:23;;;;;;;24.50;14.65;;;3.50;80.10;;;;;;5014225;28;20034;-18
2022/11/25 01:28:54;;;;;;;29.45;19.30;;;3.60;79.80;;;;;;5013933;28;20025;-16
2022/11/25 01:31:23;;;;;;;32.58;19.17;;;3.60;79.70;;;;;;5013961;28;20026;-17
2022/11/25 01:33:54;;;;;;;30.15;18.30;;;3.60;79.70;;;;;;5013812;28;20024;-17
2022/11/25 01:36:20;;;;;;;29.98;18.23;;;3.70;79.80;;;;;;5012847;28;20026;-15
2022/11/25 01:38:50;;;;;;;29.45;18.98;;;3.70;79.80;;;;;;5013819;28;20030;-17
2022/11/25 01:41:17;;;;;;;33.97;20.88;;;3.70;79.70;;;;;;5013848;28;20033;-17
2022/11/25 01:43:43;;;;;;;30.95;19.60;;;3.70;79.70;;;;;;5013857;28;20038;-16
2022/11/25 01:46:26;;;;;;;29.95;18.65;;;3.70;80.10;;;;;;5013921;28;20506;-18
2022/11/25 01:49:00;;;;;;;32.10;18.90;;;3.70;79.90;;;;;;5013482;28;20136;-19
2022/11/25 01:51:40;;;;;;;25.23;15.15;;;3.70;80.20;;;;;;5013846;28;20025;-17
2022/11/25 01:54:09;;;;;;;22.83;14.38;;;3.70;80.10;;;;;;5013544;28;20061;-16
2022/11/25 01:56:48;;;;;;;30.02;16.73;;;3.70;79.90;;;;;;5013511;28;20037;-17
2022/11/25 01:59:15;;;;;;;33.17;19.55;;;3.70;80.10;;;;;;5014020;28;20048;-19
2022/11/25 02:01:41;;;;;;;30.67;19.48;;;3.70;80.30;;;;;;5013293;28;20045;-17
2022/11/25 02:04:10;;;;;;;30.05;17.88;;;3.60;80.40;;;;;;5013295;28;20030;-16
2022/11/25 02:06:46;;;;;;;29.00;17.00;;;3.60;80.40;;;;;;5013603;28;20080;-17
2022/11/25 02:09:14;;;;;;;27.75;16.58;;;3.60;80.50;;;;;;5013348;28;20026;-17
2022/11/25 02:11:43;;;;;;;32.03;19.27;;;3.60;80.50;;;;;;5013521;28;20462;-17
2022/11/25 02:14:13;;;;;;;34.60;18.35;;;3.60;80.50;;;;;;5013465;28;20030;-16
2022/11/25 02:16:39;;;;;;;29.92;17.00;;;3.60;80.40;;;;;;5013420;28;20109;-16
2022/11/25 02:19:22;;;;;;;31.73;19.10;;;3.60;80.40;;;;;;5013210;28;20026;-17
2022/11/25 02:21:55;;;;;;;31.38;19.25;;;3.50;80.40;;;;;;5013158;28;20022;-19
2022/11/25 02:24:39;;;;;;;33.10;20.00;;;3.60;80.50;;;;;;5013476;28;20034;-19
2022/11/25 02:27:05;;;;;;;31.15;19.10;;;3.50;80.50;;;;;;5013102;28;20030;-17
2022/11/25 02:29:32;;;;;;;29.90;18.55;;;3.60;80.60;;;;;;5012846;28;20057;-18
2022/11/25 02:31:58;;;;;;;31.33;20.23;;;3.60;80.50;;;;;;5013354;28;20109;-17
2022/11/25 02:34:24;;;;;;;29.27;18.45;;;3.60;80.70;;;;;;5012941;28;20133;-17
2022/11/25 02:36:51;;;;;;;32.60;19.40;;;3.60;80.70;;;;;;5012886;28;20034;-18
2022/11/25 02:39:19;;;;;;;28.10;18.02;;;3.60;80.70;;;;;;5013083;28;20105;-17
2022/11/25 02:41:51;;;;;;;28.52;17.42;;;3.60;80.70;;;;;;5012769;28;20505;-19
2022/11/25 02:44:17;;;;;;;30.45;18.38;;;3.60;80.60;;;;;;5013142;28;20025;-17
2022/11/25 02:46:43;;;;;;;29.95;16.65;;;3.70;80.60;;;;;;5012830;28;20029;-17
2022/11/25 02:49:09;;;;;;;34.13;18.85;;;3.70;80.50;;;;;;5012755;28;20508;-17
2022/11/25 02:51:36;;;;;;;32.17;19.38;;;3.70;80.50;;;;;;5012713;28;20069;-18
2022/11/25 02:54:02;;;;;;;30.13;18.35;;;3.70;80.70;;;;;;5012900;28;20077;-16
2022/11/25 02:56:32;;;;;;;32.22;18.33;;;3.60;80.60;;;;;;5012964;28;20065;-18
2022/11/25 02:58:58;;;;;;;32.85;18.58;;;3.60;80.70;;;;;;5012589;28;20018;-17
2022/11/25 03:01:25;;;;;;;30.90;19.20;;;3.60;80.70;;;;;;5013064;28;20446;-17
2022/11/25 03:03:51;;;;;;;26.98;16.48;;;3.60;80.60;;;;;;5012573;28;20029;-16
2022/11/25 03:06:17;;;;;;;27.48;16.95;;;3.70;80.60;;;;;;5012840;28;20026;-18
2022/11/25 03:08:43;;;;;;;26.00;17.50;;;3.70;80.80;;;;;;5011360;28;20426;-17
2022/11/25 03:11:09;;;;;;;30.52;17.17;;;3.70;80.60;;;;;;5012389;28;20033;-16
2022/11/25 03:13:35;;;;;;;28.05;18.10;;;3.80;80.70;;;;;;5012465;28;20385;-17
2022/11/25 03:16:01;;;;;;;27.45;17.40;;;3.80;80.80;;;;;;5012755;28;20482;-18
2022/11/25 03:18:27;;;;;;;29.70;17.52;;;3.70;80.80;;;;;;5011267;28;20060;-17
2022/11/25 03:20:54;;;;;;;26.45;17.58;;;3.70;80.80;;;;;;5012224;28;20065;-16
2022/11/25 03:23:21;;;;;;;22.95;14.50;;;3.70;81.00;;;;;;5012488;28;20026;-16
2022/11/25 03:25:47;;;;;;;26.25;14.82;;;3.70;80.90;;;;;;5012535;28;20030;-14
2022/11/25 03:28:13;;;;;;;26.00;15.18;;;3.70;80.90;;;;;;5012391;28;20028;-15
2022/11/25 03:30:39;;;;;;;24.73;15.60;;;3.70;81.00;;;;;;5012513;28;20498;-16
2022/11/25 03:33:05;;;;;;;24.45;15.05;;;3.70;81.10;;;;;;5012225;28;20056;-16
2022/11/25 03:35:31;;;;;;;26.48;16.60;;;3.60;81.10;;;;;;5012650;28;20521;-16
2022/11/25 03:37:57;;;;;;;20.92;12.73;;;3.60;81.20;;;;;;5013334;28;20080;-15
2022/11/25 03:40:23;;;;;;;22.00;13.43;;;3.60;81.10;;;;;;5013015;28;20050;-15
2022/11/25 03:42:49;;;;;;;18.65;12.02;;;3.70;81.10;;;;;;5014394;28;20029;-15
2022/11/25 03:45:15;;;;;;;23.50;14.20;;;3.70;81.00;;;;;;5016354;28;20034;-17
2022/11/25 03:47:43;;;;;;;24.73;15.07;;;3.70;81.10;;;;;;5014944;28;20026;-16
2022/11/25 03:50:11;;;;;;;24.33;14.93;;;3.70;81.10;;;;;;5016222;28;20124;-18
2022/11/25 03:52:37;;;;;;;24.55;14.93;;;3.80;81.10;;;;;;5015909;28;20021;-15
2022/11/25 03:55:05;;;;;;;25.27;15.45;;;3.80;81.10;;;;;;5015378;28;20046;-16
2022/11/25 03:57:31;;;;;;;26.67;16.02;;;3.80;81.10;;;;;;5015923;28;20044;-15
2022/11/25 03:59:57;;;;;;;26.25;15.30;;;3.80;81.10;;;;;;5015945;28;20026;-16
2022/11/25 04:02:23;;;;;;;23.80;14.73;;;3.80;81.10;;;;;;5016046;28;20080;-16
2022/11/25 04:04:49;;;;;;;24.63;14.20;;;3.90;81.10;;;;;;5015501;28;20038;-16
2022/11/25 04:07:15;;;;;;;23.88;14.88;;;3.90;81.10;;;;;;5015690;28;20041;-18
2022/11/25 04:09:41;;;;;;;24.65;15.32;;;3.90;81.10;;;;;;5015710;28;20030;-16
2022/11/25 04:14:52;;;;;;;28.50;16.65;;;4.00;80.90;;;;;;5015485;28;20156;-17
2022/11/25 04:17:18;;;;;;;27.05;16.15;;;4.00;80.90;;;;;;5015321;28;20113;-17
2022/11/25 04:19:44;;;;;;;23.50;14.43;;;4.00;80.90;;;;;;5016016;28;20034;-18
2022/11/25 04:22:10;;;;;;;22.73;14.73;;;4.00;81.00;;;;;;5015182;28;20022;-18
2022/11/25 04:24:36;;;;;;;23.25;15.38;;;4.00;81.00;;;;;;5015105;28;20061;-17
2022/11/25 04:27:02;;;;;;;22.30;14.00;;;4.10;80.90;;;;;;5014754;28;20025;-15
2022/11/25 04:29:27;;;;;;;22.67;14.35;;;4.10;80.90;;;;;;5015454;28;20105;-17
2022/11/25 04:31:53;;;;;;;23.42;14.57;;;4.10;80.90;;;;;;5015318;28;20037;-15
2022/11/25 04:34:19;;;;;;;22.52;13.20;;;4.10;80.90;;;;;;5014930;28;20018;-16
2022/11/25 04:36:45;;;;;;;20.45;12.57;;;4.10;80.80;;;;;;5013574;28;20117;-16
2022/11/25 04:39:11;;;;;;;20.77;13.05;;;4.20;80.90;;;;;;5015588;28;20129;-17
2022/11/25 04:41:37;;;;;;;14.23;9.10;;;4.20;80.90;;;;;;5014741;28;20482;-18
2022/11/25 04:44:03;;;;;;;19.30;11.55;;;4.20;80.90;;;;;;5014812;28;20035;-17
2022/11/25 04:46:35;;;;;;;24.27;14.48;;;4.20;81.00;;;;;;5014771;28;20026;-17
2022/11/25 04:49:01;;;;;;;24.88;14.68;;;4.20;80.80;;;;;;5014622;28;20093;-17
2022/11/25 04:51:27;;;;;;;21.77;13.80;;;4.20;80.80;;;;;;5015188;28;20034;-17
2022/11/25 04:53:53;;;;;;;22.05;13.65;;;4.20;80.80;;;;;;5014283;28;20034;-19
2022/11/25 04:56:20;;;;;;;22.63;13.68;;;4.20;80.80;;;;;;5015111;28;20394;-17
2022/11/25 05:01:30;;;;;;;24.42;13.88;;;4.20;80.80;;;;;;5015104;28;20544;-13
2022/11/25 05:03:56;;;;;;;23.77;13.98;;;4.20;80.80;;;;;;5014388;28;20018;-15
2022/11/25 05:06:23;;;;;;;24.00;14.07;;;4.20;80.80;;;;;;5014392;28;20038;-15
2022/11/25 05:08:50;;;;;;;21.52;13.93;;;4.20;80.90;;;;;;5014124;28;20443;-17
2022/11/25 05:11:16;;;;;;;19.42;12.25;;;4.30;81.10;;;;;;5014444;28;20104;-16
2022/11/25 05:13:42;;;;;;;21.30;12.50;;;4.30;80.90;;;;;;5014294;28;20054;-17
2022/11/25 05:16:08;;;;;;;21.88;13.43;;;4.30;80.90;;;;;;5014175;28;20465;-15
2022/11/25 05:18:34;;;;;;;24.20;14.43;;;4.30;80.90;;;;;;5014063;28;20049;-15
2022/11/25 05:21:02;;;;;;;17.40;10.70;;;4.30;81.10;;;;;;5013999;28;20494;-14
2022/11/25 05:23:28;;;;;;;14.57;9.30;;;4.40;80.90;;;;;;5014257;28;20109;-18
2022/11/25 05:26:02;;;;;;;16.77;9.85;;;4.40;80.80;;;;;;5013973;28;20210;-15
2022/11/25 05:28:28;;;;;;;;;;;4.40;80.70;;;;;;5014433;28;20473;-16
2022/11/25 05:30:55;;;;;;;20.88;10.70;;;4.40;80.70;;;;;;5013697;28;20111;-15
2022/11/25 05:33:22;;;;;;;17.33;10.30;;;4.40;80.90;;;;;;5014073;28;20036;-15
2022/11/25 05:36:01;;;;;;;22.25;11.80;;;4.30;80.90;;;;;;5013805;28;20042;-17
2022/11/25 05:38:28;;;;;;;15.45;9.55;;;4.40;80.80;;;;;;5014027;28;20026;-17
2022/11/25 05:41:04;;;;;;;18.30;11.43;;;4.30;80.90;;;;;;5013544;28;20029;-16
2022/11/25 05:43:30;;;;;;;15.85;9.50;;;4.30;80.80;;;;;;5013976;28;20038;-17
2022/11/25 05:45:56;;;;;;;15.20;9.93;;;4.30;80.90;;;;;;5013911;28;20041;-18
2022/11/25 05:48:23;;;;;;;24.92;14.77;;;4.40;81.00;;;;;;5013584;28;20026;-17
2022/11/25 05:50:48;;;;;;;27.80;14.18;;;4.30;80.90;;;;;;5013316;28;20092;-19
2022/11/25 05:53:16;;;;;;;23.42;13.93;;;4.40;80.80;;;;;;5013529;28;20030;-16
2022/11/25 05:55:43;;;;;;;24.25;13.75;;;4.40;80.80;;;;;;5013348;28;20050;-18
2022/11/25 05:58:09;;;;;;;21.88;13.45;;;4.30;80.90;;;;;;5013375;28;20080;-16
2022/11/25 06:00:35;;;;;;;26.27;14.57;;;4.30;80.90;;;;;;5013345;28;20026;-16
2022/11/25 06:03:00;;;;;;;24.60;14.48;;;4.30;80.90;;;;;;5013395;28;20033;-18
2022/11/25 06:05:27;;;;;;;18.52;12.13;;;4.30;80.90;;;;;;5012694;28;20419;-17
2022/11/25 06:07:53;;;;;;;20.27;12.10;;;4.30;81.10;;;;;;5013296;28;20509;-18
2022/11/25 06:10:19;;;;;;;20.30;12.60;;;4.30;81.30;;;;;;5013241;28;20029;-17
2022/11/25 06:12:45;;;;;;;19.75;11.40;;;4.20;81.30;;;;;;5013037;28;20370;-16
2022/11/25 06:15:11;;;;;;;24.98;14.73;;;4.20;81.20;;;;;;5012928;28;20040;-16
2022/11/25 06:17:37;;;;;;;24.42;13.73;;;4.20;81.30;;;;;;5013522;28;20030;-17
2022/11/25 06:20:08;;;;;;;23.80;14.85;;;4.30;81.30;;;;;;5013322;28;20402;-17
2022/11/25 06:22:34;;;;;;;27.27;14.45;;;4.30;81.40;;;;;;5013104;28;20057;-17
2022/11/25 06:25:00;;;;;;;22.58;14.35;;;4.30;81.20;;;;;;5012883;28;20450;-16
2022/11/25 06:27:27;;;;;;;66.22;30.08;;;4.30;81.20;;;;;;5013244;28;20053;-16
2022/11/25 06:29:53;;;;;;;30.75;16.67;;;4.20;81.20;;;;;;5011901;28;20394;-17
2022/11/25 06:32:18;;;;;;;27.10;14.73;;;4.30;81.20;;;;;;5012944;28;20038;-16
2022/11/25 06:34:44;;;;;;;25.27;15.23;;;4.30;81.20;;;;;;5011766;28;20034;-17
2022/11/25 06:37:10;;;;;;;27.77;17.48;;;4.30;81.20;;;;;;5013274;28;20157;-16
2022/11/25 06:39:36;;;;;;;24.05;14.15;;;4.40;81.40;;;;;;5012920;28;20030;-18
2022/11/25 06:42:02;;;;;;;25.48;15.55;;;4.30;81.30;;;;;;5013076;28;20033;-17
2022/11/25 06:44:28;;;;;;;26.83;15.77;;;4.40;81.30;;;;;;5012767;28;20482;-17
2022/11/25 06:46:54;;;;;;;28.45;15.90;;;4.40;81.20;;;;;;5012618;28;20030;-17
2022/11/25 06:49:19;;;;;;;31.60;18.38;;;4.40;81.20;;;;;;5012822;28;20048;-16
2022/11/25 06:51:47;;;;;;;32.80;16.58;;;4.40;81.20;;;;;;5012789;28;20022;-18
2022/11/25 06:54:13;;;;;;;22.45;13.30;;;4.50;81.40;;;;;;5012927;28;20042;-17
2022/11/25 06:56:39;;;;;;;23.98;14.27;;;4.50;81.40;;;;;;5013011;28;20033;-18
2022/11/25 06:59:06;;;;;;;72.45;40.08;;;4.50;81.30;;;;;;5012552;28;20033;-17
2022/11/25 07:01:32;;;;;;;33.90;19.20;;;4.50;81.20;;;;;;5013032;28;20101;-16
2022/11/25 07:04:02;;;;;;;29.88;15.18;;;4.60;81.20;;;;;;5013044;28;20033;-17
2022/11/25 07:06:29;;;;;;;22.05;13.90;;;4.60;82.00;;;;;;5012727;28;20439;-18
2022/11/25 07:08:56;;;;;;;23.60;13.57;;;4.60;81.60;;;;;;5012504;28;20022;-16
2022/11/25 07:11:33;;;;;;;20.40;12.38;;;4.60;81.40;;;;;;5013212;28;20423;-17
2022/11/25 07:14:02;;;;;;;21.52;11.70;;;4.70;81.30;;;;;;5012802;28;20026;-17
2022/11/25 07:16:29;;;;;;;19.73;10.45;;;4.80;81.40;;;;;;5014753;28;20037;-17
2022/11/25 07:18:57;;;;;;;20.88;11.25;;;4.90;81.40;;;;;;5016137;28;20030;-18
2022/11/25 07:21:24;;;;;;;17.95;9.63;;;4.90;81.20;;;;;;5016913;28;20069;-16
2022/11/25 07:23:51;;;;;;;17.15;10.63;;;5.00;81.10;;;;;;5014721;28;20561;-16
2022/11/25 07:26:20;;;;;;;28.38;15.50;;;5.10;81.10;;;;;;5016122;28;20477;-18
2022/11/25 07:28:47;;;;;;;21.33;11.93;;;5.20;81.00;;;;;;5016161;28;20049;-17
2022/11/25 07:31:23;;;;;;;22.83;12.95;;;5.30;81.10;;;;;;5016155;28;20026;-17
2022/11/25 07:34:26;;;;;;;15.77;9.98;;;5.40;80.80;;;;;;5016281;28;20045;-17
2022/11/25 07:36:52;;;;;;;16.77;10.48;;;5.50;80.80;;;;;;4955666;29;20027;-17
2022/11/25 07:39:21;;;;;;;17.98;10.75;;;5.70;80.30;;;;;;4955638;29;20027;-18
2022/11/25 07:41:54;;;;;;;18.10;11.30;;;5.80;79.80;;;;;;4955554;29;20077;-16
2022/11/25 07:44:20;;;;;;;18.90;11.10;;;5.90;80.20;;;;;;4955534;29;20526;-19
2022/11/25 07:46:48;;;;;;;24.60;13.52;;;6.00;80.60;;;;;;4955475;29;20555;-18
2022/11/25 07:49:20;;;;;;;19.23;11.63;;;6.20;80.50;;;;;;4955433;29;20027;-17
2022/11/25 07:51:55;;;;;;;17.80;11.23;;;6.30;80.20;;;;;;4939444;29;20067;-17
2022/11/25 07:54:22;;;;;;;16.00;10.00;;;6.40;80.00;;;;;;4955536;29;20055;-15
2022/11/25 07:56:50;;;;;;;18.27;11.07;;;6.60;79.50;;;;;;4954974;29;20570;-19
2022/11/25 07:59:18;;;;;;;21.92;11.95;;;6.80;79.80;;;;;;4955476;29;20558;-17
2022/11/25 08:01:44;;;;;;;19.27;11.38;;;6.90;79.50;;;;;;4955409;29;20047;-16
2022/11/25 08:04:11;;;;;;;17.20;10.35;;;7.00;78.90;;;;;;4955065;29;20062;-18
2022/11/25 08:06:41;;;;;;;18.52;10.52;;;7.20;78.60;;;;;;4955161;29;20046;-16
2022/11/25 08:09:09;;;;;;;21.55;10.48;;;7.30;78.30;;;;;;4954913;29;20110;-16
2022/11/25 08:11:35;;;;;;;16.23;9.65;;;7.40;78.10;;;;;;4964505;28;20441;-16
2022/11/25 08:14:02;;;;;;;17.38;9.75;;;7.40;77.70;;;;;;5015275;28;20033;-17
2022/11/25 08:16:31;;;;;;;18.75;10.60;;;7.50;77.60;;;;;;5015303;28;20033;-17
2022/11/25 08:19:00;;;;;;;19.63;10.70;;;7.60;77.50;;;;;;5015394;28;20308;-17
2022/11/25 08:21:27;;;;;;;30.02;16.50;;;7.60;77.40;;;;;;5014184;28;20061;-16
2022/11/25 08:23:54;;;;;;;21.85;12.10;;;7.70;77.50;;;;;;5015110;28;20072;-15
2022/11/25 08:26:22;;;;;;;20.00;11.50;;;7.80;77.30;;;;;;5015481;28;20026;-17
2022/11/25 08:28:49;;;;;;;19.67;13.27;;;7.90;77.10;;;;;;5014099;28;20033;-18
2022/11/25 08:31:21;;;;;;;20.35;12.23;;;7.90;77.20;;;;;;5013821;28;20034;-17
2022/11/25 08:33:48;;;;;;;19.77;11.68;;;8.10;77.10;;;;;;5014995;28;20355;-17
2022/11/25 08:36:15;;;;;;;19.40;12.23;;;8.30;77.20;;;;;;5015202;28;20037;-16
2022/11/25 08:38:43;;;;;;;19.00;12.50;;;8.50;76.80;;;;;;5015305;28;20095;-16
2022/11/25 08:41:12;;;;;;;21.05;12.52;;;8.70;76.70;;;;;;5014659;28;20033;-17
2022/11/25 08:43:39;;;;;;;21.42;11.38;;;9.00;76.10;;;;;;5013504;28;20117;-17
2022/11/25 08:46:14;;;;;;;16.52;9.77;;;9.30;76.10;;;;;;5015176;28;20184;-17
2022/11/25 08:48:41;;;;;;;19.02;9.52;;;9.60;75.30;;;;;;5014863;28;20061;-17
2022/11/25 08:51:11;;;;;;;15.27;8.75;;;9.80;74.90;;;;;;5014583;28;20029;-17
2022/11/25 08:53:37;;;;;;;14.82;9.18;;;9.90;74.20;;;;;;5014675;28;20053;-16
2022/11/25 08:56:04;;;;;;;14.77;9.48;;;9.90;73.80;;;;;;5014701;28;20053;-19
2022/11/25 08:58:31;;;;;;;13.88;8.43;;;10.10;73.90;;;;;;5014489;28;20026;-18
2022/11/25 09:00:57;;;;;;;13.20;8.45;;;10.30;73.50;;;;;;5014381;28;20026;-17
2022/11/25 09:03:25;;;;;;;11.65;7.07;;;10.60;73.20;;;;;;5013199;28;20421;-16
2022/11/25 09:05:52;;;;;;;14.35;7.53;;;10.90;73.30;;;;;;5014770;28;20114;-18
2022/11/25 09:08:18;;;;;;;13.32;7.50;;;11.10;71.30;;;;;;5014381;28;20037;-16
2022/11/25 09:10:45;;;;;;;13.63;6.90;;;11.40;69.50;;;;;;5014357;28;20121;-16
2022/11/25 09:13:11;;;;;;;10.90;6.97;;;11.60;70.60;;;;;;5013971;28;20020;-15
2022/11/25 09:15:38;;;;;;;12.32;6.68;;;11.90;65.90;;;;;;5014546;28;20117;-14
2022/11/25 09:18:07;;;;;;;13.07;7.20;;;12.10;67.90;;;;;;5014208;28;20030;-17
2022/11/25 09:20:36;;;;;;;12.27;6.60;;;12.30;66.30;;;;;;5014010;28;20030;-17
2022/11/25 09:23:03;;;;;;;10.40;6.13;;;12.50;67.50;;;;;;5013867;28;20034;-16
2022/11/25 09:25:29;;;;;;;9.50;6.35;;;12.70;66.20;;;;;;5014421;28;20050;-15
2022/11/25 09:27:56;;;;;;;8.88;6.00;;;12.90;64.50;;;;;;5012727;28;20036;-16
2022/11/25 09:30:24;;;;;;;10.05;5.80;;;13.00;63.60;;;;;;5013974;28;20113;-18
2022/11/25 09:32:53;;;;;;;10.95;5.40;;;13.20;64.80;;;;;;5013851;28;20029;-15
2022/11/25 09:35:21;;;;;;;9.75;5.80;;;13.40;66.10;;;;;;5014372;28;20028;-17
2022/11/25 09:37:46;;;;;;;8.80;5.30;;;13.70;62.40;;;;;;5013888;28;20481;-15
2022/11/25 09:40:29;;;;;;;9.40;5.85;;;13.80;63.40;;;;;;5013129;28;20026;-16
2022/11/25 09:46:44;;;;;;;5.63;4.22;;;14.20;63.60;;;;;;4953785;29;20050;-15
2022/11/25 09:49:21;;;;;;;8.05;4.72;;;14.30;62.80;;;;;;4953076;29;20122;-16
2022/11/25 09:52:11;;;;;;;5.93;4.20;;;14.60;61.50;;;;;;4953446;29;20467;-16
2022/11/25 09:54:54;;;;;;;6.28;4.28;;;14.90;60.00;;;;;;4953162;29;20550;-17
2022/11/25 09:57:40;;;;;;;6.27;4.20;;;15.20;58.80;;;;;;4953181;29;20034;-15
2022/11/25 10:00:09;;;;;;;5.82;4.05;;;15.50;59.10;;;;;;4953325;29;20778;-15
2022/11/25 10:02:45;;;;;;;6.82;4.05;;;15.80;59.30;;;;;;4953528;29;20137;-15
2022/11/25 10:05:26;;;;;;;6.07;4.30;;;15.90;58.20;;;;;;4952855;29;20491;-16
2022/11/25 10:07:56;;;;;;;8.75;4.43;;;15.90;58.30;;;;;;4952982;29;20391;-16
2022/11/25 10:10:36;;;;;;;10.88;5.05;;;15.90;58.80;;;;;;4952980;29;20043;-16
2022/11/25 10:13:04;;;;;;;9.27;5.35;;;15.90;58.00;;;;;;4952696;29;20428;-16
2022/11/25 10:15:39;;;;;;;6.68;4.72;;;15.90;58.80;;;;;;4953263;29;20043;-14
2022/11/25 10:18:28;;;;;;;8.60;5.50;;;15.80;58.20;;;;;;4953496;29;20031;-14
2022/11/25 10:20:54;;;;;;;9.15;5.05;;;15.50;59.10;;;;;;4952707;29;20020;-14
2022/11/25 10:23:33;;;;;;;5.22;4.20;;;15.30;58.80;;;;;;5006367;28;20041;-17
2022/11/25 10:26:09;;;;;;;13.18;5.63;;;15.20;60.30;;;;;;5013071;28;20040;-15
2022/11/25 10:28:36;;;;;;;7.63;5.05;;;15.30;60.70;;;;;;5012952;28;20053;-17
2022/11/25 10:31:14;;;;;;;9.75;5.90;;;15.20;59.30;;;;;;5012921;28;20030;-14
2022/11/25 10:33:51;;;;;;;8.88;5.80;;;15.20;59.60;;;;;;5012252;28;20371;-16
2022/11/25 10:36:22;;;;;;;8.23;5.60;;;15.00;60.30;;;;;;5013226;28;20485;-16
2022/11/25 10:39:23;;;;;;;7.85;5.55;;;15.00;61.00;;;;;;5013424;28;20033;-16
2022/11/25 10:42:23;;;;;;;9.15;6.20;;;15.00;60.90;;;;;;4953002;29;20065;-16
2022/11/25 10:44:49;;;;;;;8.25;6.05;;;15.00;60.10;;;;;;4935999;29;20035;-16
2022/11/25 10:47:25;;;;;;;8.50;4.90;;;15.00;60.90;;;;;;4953095;29;20032;-16
2022/11/25 10:50:13;;;;;;;8.07;5.47;;;15.00;61.20;;;;;;4953290;28;20024;-16
2022/11/25 10:52:49;;;;;;;7.55;5.15;;;15.10;61.00;;;;;;4956627;29;20047;-17
2022/11/25 10:55:19;;;;;;;9.10;5.97;;;15.10;62.10;;;;;;4956261;29;20551;-15
2022/11/25 10:57:45;;;;;;;7.35;5.63;;;15.10;61.10;;;;;;4956260;29;20478;-15
2022/11/25 11:01:00;;;;;;;10.05;5.35;;;15.00;61.00;;;;;;4956303;29;20118;-17
2022/11/25 11:03:26;;;;;;;7.55;4.80;;;14.90;61.40;;;;;;4918571;29;20119;-16
2022/11/25 11:05:53;;;;;;;8.98;5.68;;;14.80;61.90;;;;;;4918069;29;20074;-16
2022/11/25 11:08:25;;;;;;;7.03;4.93;;;14.80;62.30;;;;;;4918175;29;20572;-15
2022/11/25 11:11:19;;;;;;;8.90;6.07;;;14.80;62.30;;;;;;4918082;29;20068;-16
2022/11/25 11:13:56;;;;;;;10.15;6.35;;;14.70;63.00;;;;;;4918082;29;20482;-15
2022/11/25 11:16:40;;;;;;;7.75;5.70;;;14.60;63.70;;;;;;4918185;29;20103;-16
2022/11/25 11:19:30;;;;;;;9.45;6.18;;;14.60;63.00;;;;;;4952947;29;20039;-17
2022/11/25 11:22:13;;;;;;;8.55;6.15;;;14.50;62.60;;;;;;4956185;28;20052;-17
2022/11/25 11:24:41;;;;;;;8.43;5.55;;;14.50;63.10;;;;;;4956071;29;20526;-18
2022/11/25 11:27:23;;;;;;;7.30;5.03;;;14.60;63.50;;;;;;4955569;29;20049;-16
2022/11/25 11:30:09;;;;;;;10.00;6.07;;;14.60;63.10;;;;;;4956165;29;20023;-18
2022/11/25 11:32:39;;;;;;;8.80;6.05;;;14.70;62.10;;;;;;4955793;29;20089;-15
2022/11/25 11:35:26;;;;;;;9.07;5.88;;;14.80;62.40;;;;;;5013608;28;20030;-16
2022/11/25 11:37:57;;;;;;;11.40;6.78;;;14.80;62.50;;;;;;5016193;28;20118;-16
2022/11/25 11:40:36;;;;;;;8.93;6.25;;;14.90;62.00;;;;;;5016245;28;20022;-18
2022/11/25 11:43:05;;;;;;;8.45;6.00;;;14.90;62.60;;;;;;5016060;28;20112;-17
2022/11/25 11:45:55;;;;;;;9.82;6.60;;;15.10;61.90;;;;;;5015997;28;20030;-14
2022/11/25 11:48:39;;;;;;;9.90;6.38;;;15.10;62.20;;;;;;5015940;28;20053;-16
2022/11/25 11:51:04;;;;;;;10.77;6.93;;;15.20;60.90;;;;;;5015727;28;20029;-15
2022/11/25 11:53:36;;;;;;;8.07;5.70;;;15.20;61.80;;;;;;5016185;28;20416;-16
2022/11/25 11:56:37;;;;;;;9.90;6.20;;;15.40;61.20;;;;;;5016117;28;20042;-16
2022/11/25 11:59:26;;;;;;;10.65;6.90;;;15.70;59.60;;;;;;4938981;29;20372;-16
2022/11/25 12:02:15;;;;;;;10.32;6.68;;;15.70;60.00;;;;;;4949165;28;20023;-15
2022/11/25 12:04:50;;;;;;;10.32;6.80;;;15.90;59.80;;;;;;4955240;29;20054;-16
2022/11/25 12:07:42;;;;;;;10.27;6.10;;;16.10;58.50;;;;;;4955230;29;20039;-15
2022/11/25 12:10:14;;;;;;;12.60;7.35;;;16.40;56.60;;;;;;4955133;29;20106;-15
2022/11/25 12:12:46;;;;;;;14.40;7.28;;;16.50;57.60;;;;;;4954901;29;20042;-16
2022/11/25 12:15:41;;;;;;;13.65;8.32;;;16.70;57.90;;;;;;4954879;29;20053;-16
2022/11/25 12:18:54;;;;;;;10.40;6.97;;;16.90;56.60;;;;;;4937123;29;20142;-16
2022/11/25 12:21:48;;;;;;;9.05;6.57;;;17.20;56.50;;;;;;4916751;29;20032;-16
2022/11/25 12:24:33;;;;;;;9.70;6.53;;;17.30;56.50;;;;;;4916991;29;20036;-16
2022/11/25 12:27:37;;;;;;;9.68;6.70;;;17.20;55.20;;;;;;4916476;29;20032;-16
2022/11/25 12:30:13;;;;;;;9.80;6.40;;;17.10;57.50;;;;;;4916195;29;20044;-16
2022/11/25 12:32:48;;;;;;;8.30;5.60;;;16.90;57.20;;;;;;4916659;29;20037;-17
2022/11/25 12:35:23;;;;;;;10.57;6.88;;;16.90;58.10;;;;;;4933970;29;20031;-15
2022/11/25 12:38:22;;;;;;;9.90;6.60;;;17.20;55.50;;;;;;4954643;29;20027;-16
2022/11/25 12:40:54;;;;;;;7.70;5.70;;;17.40;56.50;;;;;;4954525;29;20027;-16
2022/11/25 12:43:33;;;;;;;10.35;6.38;;;17.40;56.80;;;;;;4954425;29;20441;-15
2022/11/25 12:46:37;;;;;;;14.00;6.78;;;17.40;55.80;;;;;;4954722;29;20075;-15
2022/11/25 12:49:11;;;;;;;10.85;7.30;;;17.40;56.30;;;;;;4954439;29;20024;-15
2022/11/25 12:52:01;;;;;;;9.77;6.85;;;17.50;55.60;;;;;;4954393;29;20567;-15
2022/11/25 12:54:35;;;;;;;7.53;5.70;;;17.60;56.30;;;;;;4954502;29;20524;-15
2022/11/25 12:57:27;;;;;;;8.90;6.40;;;17.90;56.20;;;;;;4965189;28;20041;-15
2022/11/25 13:00:46;;;;;;;7.38;5.15;;;18.10;55.20;;;;;;5014688;28;20030;-16
2022/11/25 13:03:41;;;;;;;7.93;5.32;;;18.40;55.90;;;;;;4988959;28;20034;-16
2022/11/25 13:06:52;;;;;;;8.93;6.13;;;18.60;55.10;;;;;;5014559;28;20045;-15
2022/11/25 13:09:32;;;;;;;8.13;5.78;;;18.90;52.60;;;;;;5014703;28;20080;-15
2022/11/25 13:12:29;;;;;;;10.20;6.18;;;19.20;53.60;;;;;;5014415;28;20465;-16
2022/11/25 13:15:16;;;;;;;9.05;5.95;;;19.30;53.40;;;;;;5014089;28;20022;-15